Time;durP1;ratioP1;P1;durP2;ratioP2;P2;SDS_P1;SDS_P2;PMS_P1;PMS_P2;Temp;Humidity;BMP_temperature;BMP_pressure;BME280_temperature;BME280_humidity;BME280_pressure;Samples;Min_cycle;Max_cycle;Signal;HPM_P1;HPM_P2
2021/09/15 00:00:22;;;;;;;21.52;18.48;;;19.60;90.20;;;;;;5101518;27;20079;-75
2021/09/15 00:02:49;;;;;;;20.90;17.70;;;19.60;90.10;;;;;;5102565;27;20051;-75
2021/09/15 00:05:15;;;;;;;22.58;17.98;;;19.60;90.10;;;;;;5101692;28;20093;-75
2021/09/15 00:07:40;;;;;;;26.67;17.85;;;19.60;90.20;;;;;;5102968;27;20031;-75
2021/09/15 00:10:07;;;;;;;22.63;19.05;;;19.60;90.30;;;;;;5104800;27;20078;-75
2021/09/15 00:12:33;;;;;;;22.85;18.25;;;19.60;90.20;;;;;;5099811;27;20035;-75
2021/09/15 00:14:58;;;;;;;25.55;19.58;;;19.50;90.20;;;;;;5104940;28;20039;-75
2021/09/15 00:17:24;;;;;;;22.45;19.27;;;19.50;90.20;;;;;;5090384;27;20027;-75
2021/09/15 00:19:50;;;;;;;20.45;18.25;;;19.50;90.30;;;;;;5100904;27;20642;-75
2021/09/15 00:22:15;;;;;;;26.88;18.65;;;19.50;90.40;;;;;;5086936;28;20042;-74
2021/09/15 00:24:41;;;;;;;23.30;19.27;;;19.50;90.30;;;;;;5082735;27;20028;-75
2021/09/15 00:27:07;;;;;;;24.67;21.02;;;19.50;90.30;;;;;;5088469;28;20046;-68
2021/09/15 00:29:32;;;;;;;25.17;22.55;;;19.40;90.30;;;;;;5100460;27;21725;-68
2021/09/15 00:31:58;;;;;;;25.63;20.15;;;19.40;90.40;;;;;;5099335;28;20390;-68
2021/09/15 00:34:29;;;;;;;21.33;19.33;;;19.40;90.40;;;;;;5099862;27;20035;-68
2021/09/15 00:36:56;;;;;;;26.35;20.77;;;19.40;90.50;;;;;;5081922;27;20078;-68
2021/09/15 00:39:22;;;;;;;23.85;21.35;;;19.30;90.50;;;;;;5099640;28;20042;-68
2021/09/15 00:41:48;;;;;;;24.45;21.98;;;19.30;90.60;;;;;;5085247;28;20050;-68
2021/09/15 00:44:14;;;;;;;24.02;21.63;;;19.30;90.60;;;;;;5103432;28;20070;-68
2021/09/15 00:46:41;;;;;;;25.10;22.45;;;19.30;90.70;;;;;;5101988;28;20122;-68
2021/09/15 00:49:08;;;;;;;27.38;23.50;;;19.20;90.70;;;;;;5101494;28;20039;-69
2021/09/15 00:51:36;;;;;;;24.98;21.42;;;19.20;90.90;;;;;;5086323;28;20046;-75
2021/09/15 00:54:06;;;;;;;20.65;18.40;;;19.10;90.90;;;;;;5108223;28;20043;-74
2021/09/15 00:56:33;;;;;;;20.65;18.17;;;19.10;91.00;;;;;;5106712;28;20043;-75
2021/09/15 00:58:59;;;;;;;21.08;17.27;;;19.00;91.10;;;;;;5102881;28;20477;-75
2021/09/15 01:01:25;;;;;;;20.55;18.48;;;19.00;91.20;;;;;;5103226;28;20149;-75
2021/09/15 01:03:51;;;;;;;20.83;17.98;;;19.00;91.20;;;;;;5082491;28;20180;-75
2021/09/15 01:06:17;;;;;;;22.23;19.17;;;18.90;91.20;;;;;;5115090;28;20150;-76
2021/09/15 01:08:43;;;;;;;21.15;18.98;;;18.90;91.30;;;;;;5099365;28;20046;-75
2021/09/15 01:11:10;;;;;;;23.40;18.75;;;18.90;91.50;;;;;;5099795;28;20552;-75
2021/09/15 01:13:38;;;;;;;21.23;18.95;;;18.80;91.50;;;;;;5101505;28;20043;-75
2021/09/15 01:16:08;;;;;;;23.60;19.50;;;18.80;91.60;;;;;;5103604;28;20118;-74
2021/09/15 01:18:34;;;;;;;21.00;18.80;;;18.70;91.70;;;;;;5103848;28;20078;-73
2021/09/15 01:21:00;;;;;;;21.15;18.77;;;18.70;91.80;;;;;;5068657;27;20130;-73
2021/09/15 01:23:25;;;;;;;21.02;18.83;;;18.70;91.90;;;;;;5112626;27;20059;-74
2021/09/15 01:25:51;;;;;;;21.77;19.48;;;18.70;92.20;;;;;;5094577;27;20039;-73
2021/09/15 01:28:17;;;;;;;22.17;19.95;;;18.70;92.10;;;;;;5106952;27;20085;-74
2021/09/15 01:30:44;;;;;;;30.00;21.25;;;18.70;92.10;;;;;;5106203;27;20031;-74
2021/09/15 01:33:11;;;;;;;22.20;19.92;;;18.60;92.20;;;;;;5107782;27;20071;-74
2021/09/15 01:35:37;;;;;;;23.88;21.60;;;18.60;92.20;;;;;;5092625;27;20039;-73
2021/09/15 01:38:06;;;;;;;24.08;20.42;;;18.60;92.20;;;;;;5088309;27;20039;-74
2021/09/15 01:40:32;;;;;;;24.70;20.13;;;18.70;92.30;;;;;;5104962;27;20039;-73
2021/09/15 01:42:58;;;;;;;23.60;21.33;;;18.60;92.30;;;;;;5103758;27;20046;-73
2021/09/15 01:45:23;;;;;;;24.38;20.60;;;18.70;92.40;;;;;;5085649;27;20032;-74
2021/09/15 01:47:49;;;;;;;25.33;22.75;;;18.60;92.40;;;;;;5121783;27;20071;-73
2021/09/15 01:50:15;;;;;;;25.90;23.05;;;18.60;92.50;;;;;;5104726;27;20034;-74
2021/09/15 01:52:41;;;;;;;25.08;21.98;;;18.70;92.50;;;;;;5088632;27;20039;-74
2021/09/15 01:55:17;;;;;;;23.50;21.08;;;18.70;92.60;;;;;;5106679;27;20069;-74
2021/09/15 01:57:43;;;;;;;25.88;23.25;;;18.70;92.60;;;;;;5120928;27;20421;-74
2021/09/15 02:00:10;;;;;;;25.02;22.42;;;18.70;92.60;;;;;;5107619;27;20142;-74
2021/09/15 02:02:36;;;;;;;25.13;22.58;;;18.70;92.70;;;;;;5078468;27;20474;-74
2021/09/15 02:05:01;;;;;;;26.60;23.75;;;18.70;92.70;;;;;;5105780;27;20039;-74
2021/09/15 02:07:27;;;;;;;29.48;24.45;;;18.70;92.80;;;;;;5096737;27;20675;-74
2021/09/15 02:09:53;;;;;;;28.35;25.45;;;18.70;92.90;;;;;;5104655;27;20044;-74
2021/09/15 02:12:18;;;;;;;28.77;25.67;;;18.70;92.90;;;;;;5090070;27;20075;-73
2021/09/15 02:14:44;;;;;;;27.73;24.88;;;18.60;93.00;;;;;;5073430;28;20101;-74
2021/09/15 02:17:10;;;;;;;33.17;26.38;;;18.60;93.00;;;;;;5101875;27;20118;-75
2021/09/15 02:19:35;;;;;;;29.17;25.80;;;18.70;93.10;;;;;;5110660;27;20100;-73
2021/09/15 02:22:02;;;;;;;28.15;25.08;;;18.60;93.10;;;;;;5108058;27;20046;-74
2021/09/15 02:24:28;;;;;;;28.17;25.38;;;18.70;93.20;;;;;;5087906;27;20042;-75
2021/09/15 02:26:54;;;;;;;29.15;26.27;;;18.60;93.30;;;;;;5105184;27;20078;-75
2021/09/15 02:29:19;;;;;;;28.80;25.55;;;18.60;93.40;;;;;;5122809;27;20467;-74
2021/09/15 02:31:45;;;;;;;31.15;27.13;;;18.60;93.40;;;;;;5109203;27;20031;-74
2021/09/15 02:34:11;;;;;;;30.38;26.50;;;18.60;93.50;;;;;;5104710;27;20518;-74
2021/09/15 02:36:36;;;;;;;30.50;27.25;;;18.60;93.60;;;;;;5097143;27;20118;-74
2021/09/15 02:39:02;;;;;;;29.80;26.67;;;18.50;93.60;;;;;;5105952;27;20043;-74
2021/09/15 02:41:28;;;;;;;29.35;26.30;;;18.50;93.70;;;;;;5105166;27;20027;-74
2021/09/15 02:43:54;;;;;;;29.17;26.10;;;18.50;93.80;;;;;;5090533;27;20032;-74
2021/09/15 02:46:20;;;;;;;30.63;27.48;;;18.50;93.90;;;;;;5088436;27;20032;-74
2021/09/15 02:48:45;;;;;;;29.77;26.67;;;18.50;93.90;;;;;;5103670;27;20039;-74
2021/09/15 02:51:11;;;;;;;32.67;27.52;;;18.50;94.00;;;;;;5105246;27;20049;-74
2021/09/15 02:53:37;;;;;;;30.23;26.95;;;18.50;94.00;;;;;;5104363;27;20506;-74
2021/09/15 02:56:04;;;;;;;32.00;28.42;;;18.50;94.10;;;;;;5106093;27;20039;-67
2021/09/15 02:58:29;;;;;;;30.88;27.60;;;18.50;94.20;;;;;;5100077;27;20075;-67
2021/09/15 03:00:55;;;;;;;35.10;27.45;;;18.50;94.30;;;;;;5102560;27;20140;-67
2021/09/15 03:03:21;;;;;;;31.27;28.08;;;18.40;94.30;;;;;;5099198;27;20368;-67
2021/09/15 03:05:46;;;;;;;33.50;28.90;;;18.40;94.40;;;;;;5100336;27;20169;-67
2021/09/15 03:08:12;;;;;;;33.63;28.13;;;18.40;94.50;;;;;;5098714;27;20039;-67
2021/09/15 03:10:38;;;;;;;33.58;28.85;;;18.40;94.60;;;;;;5083948;27;20126;-67
2021/09/15 03:13:03;;;;;;;35.10;28.77;;;18.40;94.70;;;;;;5086585;27;20149;-67
2021/09/15 03:15:29;;;;;;;34.08;28.90;;;18.40;94.80;;;;;;5103456;27;20134;-67
2021/09/15 03:17:55;;;;;;;38.58;29.92;;;18.40;94.80;;;;;;5103341;27;20089;-67
2021/09/15 03:20:20;;;;;;;34.25;29.60;;;18.40;94.90;;;;;;5103389;27;20139;-67
2021/09/15 03:22:46;;;;;;;39.85;31.17;;;18.40;95.00;;;;;;5101059;27;20035;-67
2021/09/15 03:25:12;;;;;;;35.72;31.63;;;18.40;95.10;;;;;;5101016;27;20100;-67
2021/09/15 03:27:37;;;;;;;33.40;29.70;;;18.40;95.10;;;;;;5099561;27;20070;-67
2021/09/15 03:30:05;;;;;;;33.13;28.30;;;18.40;95.20;;;;;;5085940;27;20042;-67
2021/09/15 03:32:30;;;;;;;31.77;28.38;;;18.40;95.30;;;;;;5104946;27;20126;-67
2021/09/15 03:34:56;;;;;;;36.80;29.92;;;18.40;95.30;;;;;;5085243;27;20142;-67
2021/09/15 03:37:22;;;;;;;35.17;29.52;;;18.50;95.30;;;;;;5099870;27;20054;-67
2021/09/15 03:39:47;;;;;;;32.85;29.30;;;18.50;95.50;;;;;;5085303;27;20078;-67
2021/09/15 03:42:13;;;;;;;29.80;25.27;;;18.50;95.30;;;;;;5100398;28;20064;-67
2021/09/15 03:44:39;;;;;;;37.92;29.92;;;18.50;95.30;;;;;;5082899;27;20035;-67
2021/09/15 03:47:04;;;;;;;35.42;30.15;;;18.50;95.40;;;;;;5082529;27;20042;-67
2021/09/15 03:49:30;;;;;;;38.08;29.67;;;18.40;95.40;;;;;;5102874;27;20043;-67
2021/09/15 03:51:56;;;;;;;36.78;31.50;;;18.50;95.50;;;;;;5101573;27;20071;-67
2021/09/15 03:54:21;;;;;;;36.97;32.22;;;18.50;95.50;;;;;;5086443;27;20046;-67
2021/09/15 03:56:47;;;;;;;40.13;32.88;;;18.40;95.50;;;;;;5086076;27;20486;-67
2021/09/15 03:59:13;;;;;;;37.88;30.70;;;18.40;95.60;;;;;;5117394;27;20054;-67
2021/09/15 04:01:38;;;;;;;35.65;28.80;;;18.40;95.70;;;;;;5099741;27;20051;-66
2021/09/15 04:04:04;;;;;;;37.50;32.63;;;18.40;95.70;;;;;;5102229;27;20133;-67
2021/09/15 04:06:30;;;;;;;34.97;30.80;;;18.40;95.80;;;;;;5102212;27;20397;-66
2021/09/15 04:08:56;;;;;;;41.33;33.15;;;18.40;95.80;;;;;;5102177;27;20051;-66
2021/09/15 04:11:21;;;;;;;42.30;34.88;;;18.40;95.90;;;;;;5100363;27;20513;-66
2021/09/15 04:13:47;;;;;;;38.80;34.60;;;18.30;95.90;;;;;;5102159;27;20104;-66
2021/09/15 04:16:13;;;;;;;40.00;32.17;;;18.30;95.90;;;;;;5099126;27;20071;-70
2021/09/15 04:18:38;;;;;;;40.75;34.15;;;18.30;96.00;;;;;;5084166;27;20039;-67
2021/09/15 04:21:04;;;;;;;29.40;26.10;;;18.30;96.00;;;;;;5097801;28;20130;-66
2021/09/15 04:23:44;;;;;;;35.25;29.38;;;18.40;96.00;;;;;;5101723;27;20092;-67
2021/09/15 04:31:38;;;;;;;34.67;29.13;;;18.80;95.30;;;;;;5102740;27;20058;-66
2021/09/15 04:34:03;;;;;;;32.40;28.98;;;19.00;95.00;;;;;;5087816;27;20046;-66
2021/09/15 04:36:29;;;;;;;32.42;27.85;;;19.10;94.70;;;;;;5087762;27;20474;-68
2021/09/15 04:38:55;;;;;;;34.25;29.40;;;19.10;94.60;;;;;;5070741;27;20043;-66
2021/09/15 04:41:21;;;;;;;28.73;25.88;;;19.00;94.50;;;;;;5100311;28;20073;-66
2021/09/15 04:43:47;;;;;;;33.95;30.02;;;18.90;94.50;;;;;;5099579;28;20476;-67
2021/09/15 04:46:13;;;;;;;24.33;21.83;;;18.90;94.70;;;;;;5100280;28;20073;-67
2021/09/15 04:48:39;;;;;;;30.05;24.15;;;18.80;94.70;;;;;;5099597;28;20047;-66
2021/09/15 04:51:06;;;;;;;32.47;28.98;;;18.80;94.80;;;;;;5099488;28;20503;-67
2021/09/15 04:53:32;;;;;;;35.67;29.95;;;18.80;94.90;;;;;;5098749;28;20085;-66
2021/09/15 04:55:58;;;;;;;34.78;30.60;;;18.70;94.90;;;;;;5102348;27;20122;-66
2021/09/15 04:58:23;;;;;;;38.15;30.38;;;18.60;95.00;;;;;;5100993;27;20050;-66
2021/09/15 05:00:49;;;;;;;35.42;31.10;;;18.50;95.10;;;;;;5080660;28;20063;-67
2021/09/15 05:03:15;;;;;;;33.22;29.70;;;18.50;95.20;;;;;;5100271;28;20044;-67
2021/09/15 05:05:40;;;;;;;30.98;27.73;;;18.40;95.40;;;;;;5100177;28;20057;-67
2021/09/15 05:08:06;;;;;;;22.70;18.05;;;18.40;95.50;;;;;;5098942;28;20047;-66
2021/09/15 05:10:32;;;;;;;21.83;16.58;;;18.40;95.50;;;;;;5100978;28;20052;-67
2021/09/15 05:12:58;;;;;;;20.55;17.23;;;18.50;95.30;;;;;;5102667;28;20100;-67
2021/09/15 05:15:25;;;;;;;19.38;17.35;;;18.70;95.10;;;;;;5102978;28;20046;-66
2021/09/15 05:17:51;;;;;;;30.63;23.75;;;18.80;94.90;;;;;;5099397;28;20100;-66
2021/09/15 05:20:18;;;;;;;37.72;28.27;;;18.80;94.80;;;;;;5087124;28;22303;-66
2021/09/15 05:22:46;;;;;;;31.67;28.23;;;18.80;94.70;;;;;;5099752;28;20573;-66
2021/09/15 05:25:13;;;;;;;36.15;28.50;;;18.70;94.80;;;;;;5086902;28;20058;-66
2021/09/15 05:27:39;;;;;;;33.72;28.92;;;18.50;94.90;;;;;;5097829;28;20472;-66
2021/09/15 05:30:05;;;;;;;32.63;28.45;;;18.40;95.00;;;;;;5085714;28;20046;-67
2021/09/15 05:32:30;;;;;;;27.45;22.15;;;18.20;95.20;;;;;;5098758;28;20376;-64
2021/09/15 05:34:56;;;;;;;28.92;25.80;;;18.20;95.50;;;;;;5098193;28;20040;-66
2021/09/15 05:37:22;;;;;;;33.63;26.52;;;18.20;95.50;;;;;;5102090;28;20047;-66
2021/09/15 05:39:47;;;;;;;27.60;24.63;;;18.40;95.50;;;;;;5099807;28;20036;-66
2021/09/15 05:42:13;;;;;;;37.70;30.38;;;18.50;95.40;;;;;;5098232;28;20055;-66
2021/09/15 05:44:39;;;;;;;36.75;30.35;;;18.60;95.20;;;;;;5100237;28;20605;-66
2021/09/15 05:47:04;;;;;;;35.95;30.83;;;18.60;95.10;;;;;;5100059;28;20048;-65
2021/09/15 05:49:30;;;;;;;35.25;30.45;;;18.50;95.10;;;;;;5102439;28;20047;-65
2021/09/15 05:51:56;;;;;;;33.50;29.77;;;18.40;95.30;;;;;;5100381;28;20047;-73
2021/09/15 05:54:21;;;;;;;40.35;30.67;;;18.30;95.40;;;;;;5100194;28;20040;-72
2021/09/15 05:56:47;;;;;;;39.75;32.05;;;18.30;95.60;;;;;;5101939;28;20573;-72
2021/09/15 05:59:13;;;;;;;35.83;30.13;;;18.20;95.80;;;;;;5099476;28;20048;-72
2021/09/15 06:01:38;;;;;;;37.72;31.85;;;18.20;95.90;;;;;;5101873;28;20047;-72
2021/09/15 06:04:04;;;;;;;41.70;33.80;;;18.20;96.00;;;;;;5085852;28;20452;-72
2021/09/15 06:06:30;;;;;;;42.08;35.92;;;18.20;96.10;;;;;;5084633;28;20059;-71
2021/09/15 06:08:55;;;;;;;43.80;36.33;;;18.10;96.20;;;;;;5098285;28;20048;-71
2021/09/15 06:11:21;;;;;;;46.15;37.03;;;18.10;96.30;;;;;;5102164;28;20044;-71
2021/09/15 06:13:48;;;;;;;48.45;37.13;;;18.00;96.40;;;;;;5100550;28;20460;-70
2021/09/15 06:16:14;;;;;;;52.67;39.00;;;18.00;96.60;;;;;;5098063;28;20036;-72
2021/09/15 06:18:40;;;;;;;47.97;37.33;;;18.10;96.80;;;;;;5101880;28;20094;-72
2021/09/15 06:21:06;;;;;;;51.88;37.97;;;18.10;96.80;;;;;;5097584;28;20122;-72
2021/09/15 06:23:32;;;;;;;49.38;39.47;;;18.10;96.90;;;;;;5099886;28;20039;-72
2021/09/15 06:26:00;;;;;;;50.70;39.35;;;18.10;97.00;;;;;;5098864;28;20115;-73
2021/09/15 06:28:26;;;;;;;52.50;39.97;;;18.10;97.10;;;;;;5101125;28;20086;-73
2021/09/15 06:30:52;;;;;;;52.90;41.15;;;18.10;97.20;;;;;;5104927;28;20043;-75
2021/09/15 06:33:18;;;;;;;52.58;40.30;;;18.20;97.30;;;;;;5100924;28;20036;-74
2021/09/15 06:35:43;;;;;;;55.42;40.72;;;18.20;97.30;;;;;;5100203;28;20036;-73
2021/09/15 06:38:12;;;;;;;50.13;39.95;;;18.30;97.30;;;;;;5102542;28;20173;-70
2021/09/15 06:40:39;;;;;;;56.60;41.10;;;18.30;97.40;;;;;;5084790;28;20039;-73
2021/09/15 06:43:04;;;;;;;51.65;38.90;;;18.40;97.40;;;;;;5107648;28;20035;-74
2021/09/15 06:45:30;;;;;;;49.38;38.38;;;18.40;97.40;;;;;;5086627;28;20036;-70
2021/09/15 06:47:56;;;;;;;48.17;38.40;;;18.40;97.40;;;;;;5085401;28;20507;-76
2021/09/15 06:50:21;;;;;;;50.72;40.13;;;18.50;97.40;;;;;;5087539;28;20172;-75
2021/09/15 06:52:47;;;;;;;50.53;38.67;;;18.50;97.40;;;;;;5092555;28;20031;-78
2021/09/15 06:55:13;;;;;;;52.70;40.28;;;18.50;97.40;;;;;;5082347;28;20090;-70
2021/09/15 06:57:39;;;;;;;48.72;38.83;;;18.50;97.40;;;;;;5097582;28;20052;-70
2021/09/15 07:00:07;;;;;;;48.78;38.78;;;18.50;97.50;;;;;;5100823;28;20063;-71
2021/09/15 07:02:33;;;;;;;52.50;39.75;;;18.50;97.50;;;;;;5098148;28;20499;-68
2021/09/15 07:04:59;;;;;;;47.40;38.78;;;18.50;97.60;;;;;;5097256;28;20047;-71
2021/09/15 07:07:25;;;;;;;48.80;37.40;;;18.50;97.60;;;;;;5099239;28;20369;-71
2021/09/15 07:09:50;;;;;;;49.95;39.25;;;18.60;97.70;;;;;;5096728;28;20039;-71
2021/09/15 07:12:16;;;;;;;49.53;38.90;;;18.60;97.70;;;;;;5098277;28;20048;-71
2021/09/15 07:14:42;;;;;;;51.65;40.45;;;18.70;97.70;;;;;;5096361;28;20105;-71
2021/09/15 07:17:07;;;;;;;48.65;39.33;;;18.70;97.70;;;;;;5083963;28;20040;-71
2021/09/15 07:19:33;;;;;;;36.40;30.73;;;18.70;97.70;;;;;;5067554;28;20123;-71
2021/09/15 07:21:59;;;;;;;44.40;35.00;;;18.80;97.60;;;;;;5096376;28;20154;-71
2021/09/15 07:24:25;;;;;;;45.88;37.05;;;18.90;97.60;;;;;;5098789;28;20043;-71
2021/09/15 07:26:52;;;;;;;44.47;36.35;;;18.90;97.50;;;;;;5064974;28;20349;-72
2021/09/15 07:29:17;;;;;;;46.15;36.47;;;19.00;97.40;;;;;;5100423;28;20048;-71
2021/09/15 07:31:43;;;;;;;43.88;35.25;;;18.90;97.30;;;;;;5063782;28;20046;-71
2021/09/15 07:34:09;;;;;;;39.38;32.47;;;18.90;97.40;;;;;;5097790;28;20541;-72
2021/09/15 07:36:35;;;;;;;43.47;37.10;;;19.00;97.40;;;;;;5068396;28;20170;-75
2021/09/15 07:39:02;;;;;;;42.70;36.30;;;19.00;97.40;;;;;;5079082;28;20132;-75
2021/09/15 07:41:27;;;;;;;43.05;36.40;;;19.00;97.30;;;;;;5098790;28;20036;-73
2021/09/15 07:43:53;;;;;;;110.47;84.30;;;19.00;97.40;;;;;;5085125;28;20793;-73
2021/09/15 07:46:22;;;;;;;40.63;35.03;;;19.10;97.40;;;;;;5097849;28;20403;-74
2021/09/15 07:48:49;;;;;;;45.45;38.05;;;19.20;97.30;;;;;;5098186;28;20098;-74
2021/09/15 07:51:15;;;;;;;41.13;35.53;;;19.10;97.20;;;;;;5066320;28;20039;-76
2021/09/15 07:53:41;;;;;;;47.92;37.50;;;19.20;97.20;;;;;;5098032;28;20051;-77
2021/09/15 07:56:07;;;;;;;45.63;36.55;;;19.20;97.10;;;;;;5084984;28;20125;-72
2021/09/15 07:58:33;;;;;;;43.92;35.42;;;19.30;97.10;;;;;;5113774;27;20173;-75
2021/09/15 08:00:59;;;;;;;38.35;33.35;;;19.30;97.10;;;;;;5098280;28;20043;-77
2021/09/15 08:03:25;;;;;;;44.95;36.53;;;19.30;97.10;;;;;;5068285;28;20073;-76
2021/09/15 08:05:50;;;;;;;46.00;36.75;;;19.40;97.10;;;;;;5081761;28;20046;-77
2021/09/15 08:08:16;;;;;;;44.53;34.85;;;19.40;96.90;;;;;;5097901;28;20051;-73
2021/09/15 08:10:42;;;;;;;46.08;35.92;;;19.30;96.90;;;;;;5103047;28;22332;-83
2021/09/15 08:13:09;;;;;;;40.58;34.90;;;19.30;96.90;;;;;;5084999;28;20048;-77
2021/09/15 08:15:35;;;;;;;44.42;35.67;;;19.40;97.00;;;;;;5102275;28;20464;-77
2021/09/15 08:18:00;;;;;;;43.22;35.38;;;19.40;97.10;;;;;;5065606;28;20040;-82
2021/09/15 08:20:26;;;;;;;41.35;34.83;;;19.50;97.00;;;;;;5088618;28;20754;-82
2021/09/15 08:22:52;;;;;;;43.75;33.35;;;19.50;96.90;;;;;;5070512;28;20146;-81
2021/09/15 08:25:18;;;;;;;43.95;35.15;;;19.60;96.80;;;;;;5067074;28;20039;-82
2021/09/15 08:27:44;;;;;;;42.45;35.38;;;19.60;96.80;;;;;;5105562;28;20036;-83
2021/09/15 08:30:11;;;;;;;44.05;37.00;;;19.60;97.00;;;;;;5111281;28;20082;-84
2021/09/15 08:32:38;;;;;;;44.10;34.85;;;19.70;96.80;;;;;;5090256;28;20040;-85
2021/09/15 08:35:04;;;;;;;50.13;37.92;;;19.80;96.70;;;;;;5094714;28;20483;-82
2021/09/15 08:37:35;;;;;;;51.22;38.45;;;19.80;96.60;;;;;;5092593;28;20122;-85
2021/09/15 08:40:01;;;;;;;52.25;39.08;;;19.80;96.50;;;;;;5080130;28;20036;-82
2021/09/15 08:42:26;;;;;;;50.30;39.17;;;19.80;96.40;;;;;;5102645;28;20058;-70
2021/09/15 08:44:52;;;;;;;47.83;38.67;;;19.80;96.50;;;;;;5085398;28;20048;-69
2021/09/15 08:47:20;;;;;;;45.67;37.60;;;19.90;96.60;;;;;;5097141;28;20118;-69
2021/09/15 08:49:47;;;;;;;52.92;41.08;;;20.10;96.50;;;;;;5080543;28;20126;-69
2021/09/15 08:52:13;;;;;;;59.60;43.47;;;20.10;96.20;;;;;;5085116;28;20052;-69
2021/09/15 08:54:38;;;;;;;50.65;38.60;;;20.00;96.10;;;;;;5097244;28;20050;-69
2021/09/15 08:57:04;;;;;;;53.90;38.28;;;20.00;96.10;;;;;;5101198;28;20031;-69
2021/09/15 08:59:30;;;;;;;40.33;32.53;;;19.90;96.20;;;;;;5103534;28;20176;-69
2021/09/15 09:02:10;;;;;;;47.22;34.47;;;20.00;96.20;;;;;;5086819;28;20126;-69
2021/09/15 09:04:57;;;;;;;51.63;37.80;;;20.10;95.90;;;;;;5105024;28;20039;-69
2021/09/15 09:07:26;;;;;;;52.05;37.40;;;20.20;95.70;;;;;;5105848;28;20490;-70
2021/09/15 09:09:54;;;;;;;60.58;42.20;;;20.20;95.70;;;;;;5110270;28;20509;-69
2021/09/15 09:12:23;;;;;;;51.25;37.72;;;20.30;95.60;;;;;;5104466;28;20058;-70
2021/09/15 09:14:50;;;;;;;44.55;33.20;;;20.20;95.60;;;;;;5117974;28;20046;-70
2021/09/15 09:17:27;;;;;;;43.50;33.08;;;20.30;95.50;;;;;;5101907;28;20047;-70
2021/09/15 09:20:11;;;;;;;48.35;36.75;;;20.40;95.20;;;;;;5085271;28;20064;-70
2021/09/15 09:23:02;;;;;;;46.90;35.53;;;20.60;94.90;;;;;;5102881;28;20411;-70
2021/09/15 09:25:30;;;;;;;51.90;36.13;;;20.50;94.90;;;;;;5104280;28;20035;-70
2021/09/15 09:27:57;;;;;;;42.30;33.47;;;20.60;94.70;;;;;;5097887;28;20054;-70
2021/09/15 09:30:37;;;;;;;48.63;36.40;;;20.60;94.60;;;;;;5104520;28;20063;-70
2021/09/15 09:33:06;;;;;;;52.38;38.72;;;20.60;94.50;;;;;;5098530;28;20047;-69
2021/09/15 09:35:44;;;;;;;49.75;38.35;;;20.50;94.60;;;;;;5117015;28;20039;-69
2021/09/15 09:38:19;;;;;;;41.58;31.55;;;20.50;94.60;;;;;;5102302;28;20093;-70
2021/09/15 09:40:58;;;;;;;42.72;33.25;;;20.50;94.60;;;;;;5104659;28;20394;-69
2021/09/15 09:43:25;;;;;;;47.38;35.58;;;20.60;94.50;;;;;;5087338;27;20058;-69
2021/09/15 09:45:51;;;;;;;49.40;37.38;;;20.60;94.60;;;;;;5103499;27;20041;-70
2021/09/15 09:48:34;;;;;;;45.75;34.13;;;20.60;94.30;;;;;;5104077;27;20031;-69
2021/09/15 09:51:01;;;;;;;49.40;36.10;;;20.60;94.20;;;;;;5105998;27;22265;-70
2021/09/15 09:53:28;;;;;;;50.53;37.22;;;20.70;94.30;;;;;;5121542;27;20391;-70
2021/09/15 09:55:57;;;;;;;47.08;36.88;;;20.70;94.30;;;;;;5106439;27;20050;-70
2021/09/15 09:58:25;;;;;;;47.15;36.20;;;20.70;94.20;;;;;;5107417;27;20062;-70
2021/09/15 10:00:56;;;;;;;44.40;35.03;;;20.70;94.30;;;;;;5106016;27;20498;-70
2021/09/15 10:03:23;;;;;;;51.42;40.40;;;20.70;94.20;;;;;;5085185;27;20046;-70
2021/09/15 10:05:50;;;;;;;60.05;38.22;;;20.70;94.30;;;;;;5105764;27;20035;-70
2021/09/15 10:08:20;;;;;;;42.28;31.73;;;20.60;94.30;;;;;;5091136;27;20514;-70
2021/09/15 10:10:50;;;;;;;41.88;32.75;;;20.60;94.20;;;;;;5101668;27;20613;-70
2021/09/15 10:13:17;;;;;;;43.17;33.28;;;20.70;94.10;;;;;;5107290;27;20051;-70
2021/09/15 10:15:50;;;;;;;47.92;36.92;;;20.80;94.10;;;;;;5104330;27;20555;-75
2021/09/15 10:18:18;;;;;;;53.75;40.45;;;20.80;94.00;;;;;;5106912;27;20514;-75
2021/09/15 10:20:48;;;;;;;47.17;35.67;;;20.80;94.20;;;;;;5104894;27;20027;-75
2021/09/15 10:23:40;;;;;;;51.97;37.38;;;20.90;94.10;;;;;;5103980;27;20042;-77
2021/09/15 10:26:33;;;;;;;54.20;40.20;;;20.90;93.80;;;;;;5103354;27;20113;-75
2021/09/15 10:29:20;;;;;;;54.88;40.78;;;20.70;93.80;;;;;;5121786;27;20084;-77
2021/09/15 10:32:10;;;;;;;44.53;34.97;;;20.60;94.00;;;;;;5106709;27;20082;-77
2021/09/15 10:34:39;;;;;;;46.85;35.05;;;20.60;94.10;;;;;;5086106;27;20475;-77
2021/09/15 10:37:11;;;;;;;52.28;38.70;;;20.60;94.30;;;;;;5085875;27;20043;-76
2021/09/15 10:39:55;;;;;;;41.37;32.77;;;20.70;94.10;;;;;;5106623;27;20043;-76
2021/09/15 10:42:37;;;;;;;48.75;36.83;;;20.70;93.90;;;;;;5105009;27;20039;-77
2021/09/15 10:45:14;;;;;;;47.55;36.30;;;20.70;93.90;;;;;;5086590;27;20088;-77
2021/09/15 10:47:45;;;;;;;51.25;39.05;;;20.70;94.00;;;;;;5083619;27;20055;-77
2021/09/15 10:50:33;;;;;;;57.47;42.72;;;20.70;94.10;;;;;;5091932;27;20136;-78
2021/09/15 10:53:12;;;;;;;51.05;38.85;;;20.70;94.00;;;;;;5095433;27;20061;-77
2021/09/15 10:55:41;;;;;;;55.50;40.47;;;20.60;94.30;;;;;;5105546;27;20130;-75
2021/09/15 10:58:13;;;;;;;48.88;39.17;;;20.60;94.30;;;;;;5105037;27;20035;-77
2021/09/15 11:00:54;;;;;;;49.63;39.22;;;20.60;94.40;;;;;;5104546;27;20058;-77
2021/09/15 11:03:30;;;;;;;53.60;38.95;;;20.70;94.20;;;;;;5092337;27;20063;-77
2021/09/15 11:05:58;;;;;;;47.97;36.50;;;20.80;94.10;;;;;;5083388;27;20050;-74
2021/09/15 11:08:56;;;;;;;45.38;36.70;;;20.80;94.00;;;;;;5107029;27;20100;-70
2021/09/15 11:11:21;;;;;;;42.25;32.80;;;21.00;93.80;;;;;;5046078;27;20051;-71
2021/09/15 11:13:53;;;;;;;46.97;36.10;;;21.10;93.80;;;;;;5106355;27;20930;-70
2021/09/15 11:16:29;;;;;;;38.08;32.05;;;21.20;93.70;;;;;;5106360;27;20053;-70
2021/09/15 11:19:08;;;;;;;43.72;36.10;;;21.30;93.30;;;;;;5087495;27;20434;-71
2021/09/15 11:21:51;;;;;;;43.13;33.83;;;21.30;93.00;;;;;;5102062;27;20050;-71
2021/09/15 11:24:26;;;;;;;41.38;31.45;;;21.30;92.90;;;;;;5105359;27;20039;-71
2021/09/15 11:26:54;;;;;;;41.70;34.25;;;21.30;92.90;;;;;;5099200;27;20101;-71
2021/09/15 11:29:51;;;;;;;39.88;34.85;;;21.30;92.90;;;;;;5104845;27;20043;-71
2021/09/15 11:32:19;;;;;;;39.33;31.58;;;21.30;92.80;;;;;;5102817;27;20050;-71
2021/09/15 11:34:51;;;;;;;38.20;30.40;;;21.20;93.00;;;;;;5105912;27;20039;-71
2021/09/15 11:37:31;;;;;;;36.72;31.00;;;21.20;92.90;;;;;;5105289;27;20046;-71
2021/09/15 11:40:02;;;;;;;34.75;28.88;;;21.20;92.80;;;;;;5118297;27;20058;-71
2021/09/15 11:42:35;;;;;;;41.10;32.35;;;21.20;92.90;;;;;;5104117;27;20052;-71
2021/09/15 11:45:13;;;;;;;40.70;32.47;;;21.20;92.90;;;;;;5103297;27;20031;-71
2021/09/15 11:47:44;;;;;;;34.85;28.30;;;21.30;92.80;;;;;;5104752;27;20047;-69
2021/09/15 11:50:31;;;;;;;35.53;29.38;;;21.30;92.90;;;;;;5082921;27;20047;-69
2021/09/15 11:55:34;;;;;;;37.33;30.33;;;21.40;92.60;;;;;;5104691;27;20046;-69
2021/09/15 11:58:01;;;;;;;40.80;34.07;;;21.40;92.40;;;;;;5103200;27;20124;-69
2021/09/15 12:00:31;;;;;;;40.60;32.45;;;21.40;92.30;;;;;;5105533;27;20043;-69
2021/09/15 12:03:00;;;;;;;45.28;35.90;;;21.50;92.10;;;;;;5088821;27;20058;-69
2021/09/15 12:05:26;;;;;;;44.33;34.08;;;21.60;92.10;;;;;;5115970;27;20099;-68
2021/09/15 12:07:53;;;;;;;39.17;31.67;;;21.70;91.90;;;;;;5087844;28;20036;-69
2021/09/15 12:10:20;;;;;;;44.95;35.45;;;21.80;91.70;;;;;;5091100;27;20376;-72
2021/09/15 12:12:48;;;;;;;41.13;30.63;;;21.90;91.60;;;;;;5102225;27;20061;-69
2021/09/15 12:15:13;;;;;;;40.80;30.83;;;21.90;91.40;;;;;;5102816;27;20043;-71
2021/09/15 12:17:40;;;;;;;34.15;26.85;;;21.90;91.40;;;;;;5087087;27;20103;-72
2021/09/15 12:20:08;;;;;;;35.03;28.40;;;22.00;91.20;;;;;;5097362;27;20071;-71
2021/09/15 12:22:36;;;;;;;30.73;24.60;;;22.00;90.90;;;;;;5087297;27;20043;-70
2021/09/15 12:25:08;;;;;;;34.83;27.70;;;22.10;90.70;;;;;;5098274;27;20043;-70
2021/09/15 12:27:36;;;;;;;32.22;25.38;;;22.10;90.50;;;;;;5105455;27;20486;-71
2021/09/15 12:30:10;;;;;;;33.47;27.20;;;22.10;90.60;;;;;;5104579;27;20035;-71
2021/09/15 12:32:43;;;;;;;35.47;26.50;;;22.20;90.60;;;;;;5105150;27;20047;-73
2021/09/15 12:35:38;;;;;;;31.65;24.85;;;22.30;90.30;;;;;;5085781;27;20132;-71
2021/09/15 12:38:06;;;;;;;34.95;26.40;;;22.40;90.20;;;;;;5076686;28;20075;-73